sensor_id;sensor_type;location;lat;lon;timestamp;P1;durP1;ratioP1;P2;durP2;ratioP2
45909;SDS011;31622;55.416;37.840;2024-03-08T00:02:03;6.15;;;3.15;;
45909;SDS011;31622;55.416;37.840;2024-03-08T00:04:29;8.60;;;3.38;;
45909;SDS011;31622;55.416;37.840;2024-03-08T00:06:54;9.68;;;3.53;;
45909;SDS011;31622;55.416;37.840;2024-03-08T00:09:20;8.85;;;3.40;;
45909;SDS011;31622;55.416;37.840;2024-03-08T00:11:46;11.27;;;3.88;;
45909;SDS011;31622;55.416;37.840;2024-03-08T00:14:14;8.20;;;3.50;;
45909;SDS011;31622;55.416;37.840;2024-03-08T00:16:39;9.23;;;3.45;;
45909;SDS011;31622;55.416;37.840;2024-03-08T00:19:09;10.80;;;4.03;;
45909;SDS011;31622;55.416;37.840;2024-03-08T00:21:35;8.20;;;3.33;;
45909;SDS011;31622;55.416;37.840;2024-03-08T00:24:01;11.05;;;3.90;;
45909;SDS011;31622;55.416;37.840;2024-03-08T00:26:27;10.63;;;3.85;;
45909;SDS011;31622;55.416;37.840;2024-03-08T00:28:54;9.20;;;3.20;;
45909;SDS011;31622;55.416;37.840;2024-03-08T00:31:19;10.77;;;3.50;;
45909;SDS011;31622;55.416;37.840;2024-03-08T00:33:45;8.57;;;4.13;;
45909;SDS011;31622;55.416;37.840;2024-03-08T00:36:11;8.48;;;3.63;;
45909;SDS011;31622;55.416;37.840;2024-03-08T00:38:37;9.25;;;3.20;;
45909;SDS011;31622;55.416;37.840;2024-03-08T00:41:03;12.73;;;4.25;;
45909;SDS011;31622;55.416;37.840;2024-03-08T00:43:28;9.63;;;3.63;;
45909;SDS011;31622;55.416;37.840;2024-03-08T00:45:57;9.00;;;3.30;;
45909;SDS011;31622;55.416;37.840;2024-03-08T00:48:23;8.63;;;3.42;;
45909;SDS011;31622;55.416;37.840;2024-03-08T00:50:49;7.40;;;3.33;;
45909;SDS011;31622;55.416;37.840;2024-03-08T00:53:14;8.60;;;3.60;;
45909;SDS011;31622;55.416;37.840;2024-03-08T00:55:40;8.15;;;3.58;;
45909;SDS011;31622;55.416;37.840;2024-03-08T00:58:06;5.93;;;3.13;;
45909;SDS011;31622;55.416;37.840;2024-03-08T01:00:33;8.75;;;3.25;;
45909;SDS011;31622;55.416;37.840;2024-03-08T01:02:59;9.00;;;3.20;;
45909;SDS011;31622;55.416;37.840;2024-03-08T01:05:25;7.32;;;2.92;;
45909;SDS011;31622;55.416;37.840;2024-03-08T01:07:51;7.60;;;2.90;;
45909;SDS011;31622;55.416;37.840;2024-03-08T01:10:16;5.43;;;2.97;;
45909;SDS011;31622;55.416;37.840;2024-03-08T01:12:42;6.47;;;2.72;;
45909;SDS011;31622;55.416;37.840;2024-03-08T01:15:11;4.95;;;3.03;;
45909;SDS011;31622;55.416;37.840;2024-03-08T01:17:37;7.35;;;3.30;;
45909;SDS011;31622;55.416;37.840;2024-03-08T01:20:03;3.97;;;2.42;;
45909;SDS011;31622;55.416;37.840;2024-03-08T01:22:29;5.55;;;2.97;;
45909;SDS011;31622;55.416;37.840;2024-03-08T01:24:56;5.10;;;2.90;;
45909;SDS011;31622;55.416;37.840;2024-03-08T01:27:22;4.55;;;2.67;;
45909;SDS011;31622;55.416;37.840;2024-03-08T01:29:48;5.22;;;2.40;;
45909;SDS011;31622;55.416;37.840;2024-03-08T01:32:13;5.20;;;2.65;;
45909;SDS011;31622;55.416;37.840;2024-03-08T01:34:40;4.90;;;2.50;;
45909;SDS011;31622;55.416;37.840;2024-03-08T01:37:06;5.85;;;2.63;;
45909;SDS011;31622;55.416;37.840;2024-03-08T01:39:32;4.93;;;2.70;;
45909;SDS011;31622;55.416;37.840;2024-03-08T01:41:58;6.90;;;2.75;;
45909;SDS011;31622;55.416;37.840;2024-03-08T01:44:24;5.72;;;2.30;;
45909;SDS011;31622;55.416;37.840;2024-03-08T01:46:50;3.95;;;2.20;;
45909;SDS011;31622;55.416;37.840;2024-03-08T01:49:17;4.65;;;2.00;;
45909;SDS011;31622;55.416;37.840;2024-03-08T01:51:46;5.07;;;2.20;;
45909;SDS011;31622;55.416;37.840;2024-03-08T01:54:12;4.45;;;2.20;;
45909;SDS011;31622;55.416;37.840;2024-03-08T01:56:40;4.20;;;2.38;;
45909;SDS011;31622;55.416;37.840;2024-03-08T01:59:06;4.68;;;2.22;;
45909;SDS011;31622;55.416;37.840;2024-03-08T02:01:33;5.05;;;2.20;;
45909;SDS011;31622;55.416;37.840;2024-03-08T02:03:59;3.70;;;2.10;;
45909;SDS011;31622;55.416;37.840;2024-03-08T02:06:25;4.15;;;1.90;;
45909;SDS011;31622;55.416;37.840;2024-03-08T02:08:51;6.15;;;2.15;;
45909;SDS011;31622;55.416;37.840;2024-03-08T02:11:17;4.45;;;2.22;;
45909;SDS011;31622;55.416;37.840;2024-03-08T02:13:44;4.03;;;2.10;;
45909;SDS011;31622;55.416;37.840;2024-03-08T02:16:10;3.35;;;1.95;;
45909;SDS011;31622;55.416;37.840;2024-03-08T02:18:36;4.60;;;2.20;;
45909;SDS011;31622;55.416;37.840;2024-03-08T02:21:03;3.65;;;1.90;;
45909;SDS011;31622;55.416;37.840;2024-03-08T02:23:29;5.10;;;2.10;;
45909;SDS011;31622;55.416;37.840;2024-03-08T02:25:55;10.23;;;2.05;;
45909;SDS011;31622;55.416;37.840;2024-03-08T02:28:22;3.40;;;2.08;;
45909;SDS011;31622;55.416;37.840;2024-03-08T02:30:48;3.22;;;1.73;;
45909;SDS011;31622;55.416;37.840;2024-03-08T02:33:16;3.28;;;1.92;;
45909;SDS011;31622;55.416;37.840;2024-03-08T02:35:43;3.88;;;1.63;;
45909;SDS011;31622;55.416;37.840;2024-03-08T02:38:14;2.75;;;1.83;;
45909;SDS011;31622;55.416;37.840;2024-03-08T02:40:47;3.40;;;1.75;;
45909;SDS011;31622;55.416;37.840;2024-03-08T02:43:13;3.83;;;2.00;;
45909;SDS011;31622;55.416;37.840;2024-03-08T02:45:40;3.58;;;1.73;;
45909;SDS011;31622;55.416;37.840;2024-03-08T02:48:07;3.70;;;1.48;;
45909;SDS011;31622;55.416;37.840;2024-03-08T02:50:33;3.03;;;1.83;;
45909;SDS011;31622;55.416;37.840;2024-03-08T02:53:02;2.70;;;1.60;;
45909;SDS011;31622;55.416;37.840;2024-03-08T02:55:29;2.85;;;1.48;;
45909;SDS011;31622;55.416;37.840;2024-03-08T02:57:55;3.38;;;1.85;;
45909;SDS011;31622;55.416;37.840;2024-03-08T03:00:21;4.45;;;1.73;;
45909;SDS011;31622;55.416;37.840;2024-03-08T03:02:48;2.42;;;1.63;;
45909;SDS011;31622;55.416;37.840;2024-03-08T03:05:19;2.38;;;1.52;;
45909;SDS011;31622;55.416;37.840;2024-03-08T03:07:45;2.58;;;1.50;;
45909;SDS011;31622;55.416;37.840;2024-03-08T03:10:11;3.25;;;1.50;;
45909;SDS011;31622;55.416;37.840;2024-03-08T03:12:37;4.97;;;1.65;;
45909;SDS011;31622;55.416;37.840;2024-03-08T03:15:04;2.92;;;1.63;;
45909;SDS011;31622;55.416;37.840;2024-03-08T03:17:29;3.25;;;1.80;;
45909;SDS011;31622;55.416;37.840;2024-03-08T03:19:55;2.67;;;1.83;;
45909;SDS011;31622;55.416;37.840;2024-03-08T03:22:21;5.43;;;1.70;;
45909;SDS011;31622;55.416;37.840;2024-03-08T03:24:47;2.75;;;1.55;;
45909;SDS011;31622;55.416;37.840;2024-03-08T03:27:15;3.67;;;1.42;;
45909;SDS011;31622;55.416;37.840;2024-03-08T03:29:42;2.75;;;1.73;;
45909;SDS011;31622;55.416;37.840;2024-03-08T03:32:13;2.67;;;1.42;;
45909;SDS011;31622;55.416;37.840;2024-03-08T03:34:40;2.58;;;1.52;;
45909;SDS011;31622;55.416;37.840;2024-03-08T03:37:06;2.45;;;1.52;;
45909;SDS011;31622;55.416;37.840;2024-03-08T03:39:33;4.65;;;1.60;;
45909;SDS011;31622;55.416;37.840;2024-03-08T03:42:02;3.17;;;1.60;;
45909;SDS011;31622;55.416;37.840;2024-03-08T03:44:28;4.32;;;1.50;;
45909;SDS011;31622;55.416;37.840;2024-03-08T03:46:54;2.33;;;1.50;;
45909;SDS011;31622;55.416;37.840;2024-03-08T03:49:20;2.75;;;1.50;;
45909;SDS011;31622;55.416;37.840;2024-03-08T03:51:46;4.35;;;1.45;;
45909;SDS011;31622;55.416;37.840;2024-03-08T03:54:12;2.55;;;1.50;;
45909;SDS011;31622;55.416;37.840;2024-03-08T03:56:37;9.77;;;1.80;;
45909;SDS011;31622;55.416;37.840;2024-03-08T03:59:05;3.60;;;1.60;;
45909;SDS011;31622;55.416;37.840;2024-03-08T04:01:32;5.00;;;1.50;;
45909;SDS011;31622;55.416;37.840;2024-03-08T04:03:59;3.53;;;1.25;;
45909;SDS011;31622;55.416;37.840;2024-03-08T04:06:25;2.17;;;1.58;;
45909;SDS011;31622;55.416;37.840;2024-03-08T04:08:50;2.75;;;1.40;;
45909;SDS011;31622;55.416;37.840;2024-03-08T04:11:16;4.35;;;1.50;;
45909;SDS011;31622;55.416;37.840;2024-03-08T04:13:42;2.83;;;1.60;;
45909;SDS011;31622;55.416;37.840;2024-03-08T04:16:08;4.15;;;1.65;;
45909;SDS011;31622;55.416;37.840;2024-03-08T04:18:36;2.20;;;1.30;;
45909;SDS011;31622;55.416;37.840;2024-03-08T04:21:04;2.30;;;1.50;;
45909;SDS011;31622;55.416;37.840;2024-03-08T04:23:32;3.15;;;1.50;;
45909;SDS011;31622;55.416;37.840;2024-03-08T04:26:01;3.97;;;1.40;;
45909;SDS011;31622;55.416;37.840;2024-03-08T04:28:29;3.75;;;1.45;;
45909;SDS011;31622;55.416;37.840;2024-03-08T04:30:56;1.92;;;1.33;;
45909;SDS011;31622;55.416;37.840;2024-03-08T04:33:22;2.20;;;1.20;;
45909;SDS011;31622;55.416;37.840;2024-03-08T04:35:49;2.33;;;1.48;;
45909;SDS011;31622;55.416;37.840;2024-03-08T04:38:14;5.07;;;1.40;;
45909;SDS011;31622;55.416;37.840;2024-03-08T04:40:41;2.15;;;1.40;;
45909;SDS011;31622;55.416;37.840;2024-03-08T04:43:07;2.10;;;1.52;;
45909;SDS011;31622;55.416;37.840;2024-03-08T04:45:34;2.58;;;1.40;;
45909;SDS011;31622;55.416;37.840;2024-03-08T04:47:59;2.78;;;1.65;;
45909;SDS011;31622;55.416;37.840;2024-03-08T04:50:25;2.58;;;1.45;;
45909;SDS011;31622;55.416;37.840;2024-03-08T04:52:54;3.42;;;1.90;;
45909;SDS011;31622;55.416;37.840;2024-03-08T04:55:20;2.90;;;1.70;;
45909;SDS011;31622;55.416;37.840;2024-03-08T04:57:47;4.38;;;1.75;;
45909;SDS011;31622;55.416;37.840;2024-03-08T05:00:13;8.38;;;2.25;;
45909;SDS011;31622;55.416;37.840;2024-03-08T05:02:40;3.80;;;1.90;;
45909;SDS011;31622;55.416;37.840;2024-03-08T05:05:07;4.22;;;2.17;;
45909;SDS011;31622;55.416;37.840;2024-03-08T05:07:36;4.03;;;2.10;;
45909;SDS011;31622;55.416;37.840;2024-03-08T05:10:02;5.05;;;2.13;;
45909;SDS011;31622;55.416;37.840;2024-03-08T05:12:28;3.50;;;2.00;;
45909;SDS011;31622;55.416;37.840;2024-03-08T05:14:54;3.42;;;2.03;;
45909;SDS011;31622;55.416;37.840;2024-03-08T05:17:20;3.38;;;1.70;;
45909;SDS011;31622;55.416;37.840;2024-03-08T05:19:46;4.28;;;2.38;;
45909;SDS011;31622;55.416;37.840;2024-03-08T05:22:12;3.22;;;1.90;;
45909;SDS011;31622;55.416;37.840;2024-03-08T05:24:38;4.13;;;1.98;;
45909;SDS011;31622;55.416;37.840;2024-03-08T05:27:04;5.00;;;2.22;;
45909;SDS011;31622;55.416;37.840;2024-03-08T05:29:30;3.10;;;1.85;;
45909;SDS011;31622;55.416;37.840;2024-03-08T05:31:56;4.47;;;2.08;;
45909;SDS011;31622;55.416;37.840;2024-03-08T05:34:23;4.05;;;2.03;;
45909;SDS011;31622;55.416;37.840;2024-03-08T05:36:48;4.35;;;2.20;;
45909;SDS011;31622;55.416;37.840;2024-03-08T05:39:17;4.30;;;2.20;;
45909;SDS011;31622;55.416;37.840;2024-03-08T05:41:43;4.65;;;1.98;;
45909;SDS011;31622;55.416;37.840;2024-03-08T05:44:09;3.88;;;1.70;;
45909;SDS011;31622;55.416;37.840;2024-03-08T05:46:36;3.38;;;1.92;;
45909;SDS011;31622;55.416;37.840;2024-03-08T05:49:05;3.13;;;2.10;;
45909;SDS011;31622;55.416;37.840;2024-03-08T05:51:35;3.78;;;2.20;;
45909;SDS011;31622;55.416;37.840;2024-03-08T05:54:05;3.00;;;2.08;;
45909;SDS011;31622;55.416;37.840;2024-03-08T05:56:35;7.28;;;2.45;;
45909;SDS011;31622;55.416;37.840;2024-03-08T05:59:02;4.47;;;2.03;;
45909;SDS011;31622;55.416;37.840;2024-03-08T06:01:28;2.75;;;1.92;;
45909;SDS011;31622;55.416;37.840;2024-03-08T06:03:54;4.43;;;2.40;;
45909;SDS011;31622;55.416;37.840;2024-03-08T06:06:21;3.30;;;2.03;;
45909;SDS011;31622;55.416;37.840;2024-03-08T06:08:50;3.65;;;2.33;;
45909;SDS011;31622;55.416;37.840;2024-03-08T06:11:16;11.50;;;2.78;;
45909;SDS011;31622;55.416;37.840;2024-03-08T06:13:43;4.75;;;2.40;;
45909;SDS011;31622;55.416;37.840;2024-03-08T06:16:09;5.50;;;3.20;;
45909;SDS011;31622;55.416;37.840;2024-03-08T06:18:35;3.75;;;2.55;;
45909;SDS011;31622;55.416;37.840;2024-03-08T06:21:04;6.10;;;2.88;;
45909;SDS011;31622;55.416;37.840;2024-03-08T06:23:31;4.88;;;2.85;;
45909;SDS011;31622;55.416;37.840;2024-03-08T06:25:57;4.63;;;2.88;;
45909;SDS011;31622;55.416;37.840;2024-03-08T06:28:23;6.10;;;3.20;;
45909;SDS011;31622;55.416;37.840;2024-03-08T06:30:49;8.40;;;3.88;;
45909;SDS011;31622;55.416;37.840;2024-03-08T06:33:16;7.50;;;4.90;;
45909;SDS011;31622;55.416;37.840;2024-03-08T06:35:43;8.48;;;5.57;;
45909;SDS011;31622;55.416;37.840;2024-03-08T06:38:09;8.50;;;5.95;;
45909;SDS011;31622;55.416;37.840;2024-03-08T06:40:36;11.05;;;6.53;;
45909;SDS011;31622;55.416;37.840;2024-03-08T06:43:02;10.40;;;6.57;;
45909;SDS011;31622;55.416;37.840;2024-03-08T06:45:31;9.88;;;5.95;;
45909;SDS011;31622;55.416;37.840;2024-03-08T06:47:57;10.02;;;6.25;;
45909;SDS011;31622;55.416;37.840;2024-03-08T06:50:22;10.02;;;6.18;;
45909;SDS011;31622;55.416;37.840;2024-03-08T06:52:48;11.57;;;6.18;;
45909;SDS011;31622;55.416;37.840;2024-03-08T06:55:21;8.30;;;5.75;;
45909;SDS011;31622;55.416;37.840;2024-03-08T06:57:47;11.88;;;5.55;;
45909;SDS011;31622;55.416;37.840;2024-03-08T07:00:12;11.23;;;5.93;;
45909;SDS011;31622;55.416;37.840;2024-03-08T07:02:44;10.27;;;5.70;;
45909;SDS011;31622;55.416;37.840;2024-03-08T07:05:19;11.27;;;5.88;;
45909;SDS011;31622;55.416;37.840;2024-03-08T07:07:45;11.20;;;5.43;;
45909;SDS011;31622;55.416;37.840;2024-03-08T07:10:13;8.98;;;5.05;;
45909;SDS011;31622;55.416;37.840;2024-03-08T07:12:43;8.52;;;5.40;;
45909;SDS011;31622;55.416;37.840;2024-03-08T07:15:10;7.25;;;4.80;;
45909;SDS011;31622;55.416;37.840;2024-03-08T07:17:39;10.50;;;4.88;;
45909;SDS011;31622;55.416;37.840;2024-03-08T07:20:05;9.18;;;4.53;;
45909;SDS011;31622;55.416;37.840;2024-03-08T07:22:37;7.40;;;4.55;;
45909;SDS011;31622;55.416;37.840;2024-03-08T07:25:06;7.18;;;4.18;;
45909;SDS011;31622;55.416;37.840;2024-03-08T07:27:49;7.50;;;4.40;;
45909;SDS011;31622;55.416;37.840;2024-03-08T07:30:16;6.22;;;4.55;;
45909;SDS011;31622;55.416;37.840;2024-03-08T07:33:01;7.53;;;4.60;;
45909;SDS011;31622;55.416;37.840;2024-03-08T07:35:30;7.32;;;4.25;;
45909;SDS011;31622;55.416;37.840;2024-03-08T07:37:56;6.50;;;4.30;;
45909;SDS011;31622;55.416;37.840;2024-03-08T07:40:23;5.60;;;4.10;;
45909;SDS011;31622;55.416;37.840;2024-03-08T07:42:51;6.05;;;3.85;;
45909;SDS011;31622;55.416;37.840;2024-03-08T07:45:17;6.00;;;3.85;;
45909;SDS011;31622;55.416;37.840;2024-03-08T07:47:43;5.88;;;3.90;;
45909;SDS011;31622;55.416;37.840;2024-03-08T07:50:09;35.17;;;4.38;;
45909;SDS011;31622;55.416;37.840;2024-03-08T07:52:36;20.23;;;3.80;;
45909;SDS011;31622;55.416;37.840;2024-03-08T07:57:33;8.20;;;4.20;;
45909;SDS011;31622;55.416;37.840;2024-03-08T07:59:59;10.05;;;4.43;;
45909;SDS011;31622;55.416;37.840;2024-03-08T08:02:25;8.80;;;4.60;;
45909;SDS011;31622;55.416;37.840;2024-03-08T08:04:50;6.80;;;4.10;;
45909;SDS011;31622;55.416;37.840;2024-03-08T08:07:16;9.65;;;4.00;;
45909;SDS011;31622;55.416;37.840;2024-03-08T08:09:42;9.02;;;3.90;;
45909;SDS011;31622;55.416;37.840;2024-03-08T08:12:08;7.30;;;4.03;;
45909;SDS011;31622;55.416;37.840;2024-03-08T08:14:37;9.15;;;4.15;;
45909;SDS011;31622;55.416;37.840;2024-03-08T08:17:04;9.25;;;3.72;;
45909;SDS011;31622;55.416;37.840;2024-03-08T08:19:30;12.10;;;3.85;;
45909;SDS011;31622;55.416;37.840;2024-03-08T08:21:57;8.90;;;3.92;;
45909;SDS011;31622;55.416;37.840;2024-03-08T08:24:23;5.60;;;3.75;;
45909;SDS011;31622;55.416;37.840;2024-03-08T08:26:49;7.20;;;3.85;;
45909;SDS011;31622;55.416;37.840;2024-03-08T08:29:15;8.80;;;3.88;;
45909;SDS011;31622;55.416;37.840;2024-03-08T08:31:41;5.70;;;3.55;;
45909;SDS011;31622;55.416;37.840;2024-03-08T08:34:08;6.00;;;3.25;;
45909;SDS011;31622;55.416;37.840;2024-03-08T08:36:37;8.65;;;3.45;;
45909;SDS011;31622;55.416;37.840;2024-03-08T08:39:04;6.45;;;3.47;;
45909;SDS011;31622;55.416;37.840;2024-03-08T08:41:30;6.78;;;3.72;;
45909;SDS011;31622;55.416;37.840;2024-03-08T08:43:57;5.57;;;3.70;;
45909;SDS011;31622;55.416;37.840;2024-03-08T08:46:22;4.85;;;3.22;;
45909;SDS011;31622;55.416;37.840;2024-03-08T08:48:48;5.40;;;3.30;;
45909;SDS011;31622;55.416;37.840;2024-03-08T08:51:14;5.53;;;3.78;;
45909;SDS011;31622;55.416;37.840;2024-03-08T08:53:41;4.45;;;3.30;;
45909;SDS011;31622;55.416;37.840;2024-03-08T08:56:09;5.22;;;3.72;;
45909;SDS011;31622;55.416;37.840;2024-03-08T08:58:44;6.28;;;3.47;;
45909;SDS011;31622;55.416;37.840;2024-03-08T09:01:10;5.25;;;3.42;;
45909;SDS011;31622;55.416;37.840;2024-03-08T09:03:37;5.45;;;3.10;;
45909;SDS011;31622;55.416;37.840;2024-03-08T09:06:08;5.85;;;3.10;;
45909;SDS011;31622;55.416;37.840;2024-03-08T09:08:35;4.95;;;3.25;;
45909;SDS011;31622;55.416;37.840;2024-03-08T09:11:02;4.75;;;3.17;;
45909;SDS011;31622;55.416;37.840;2024-03-08T09:13:27;4.68;;;2.92;;
45909;SDS011;31622;55.416;37.840;2024-03-08T09:15:53;4.32;;;3.05;;
45909;SDS011;31622;55.416;37.840;2024-03-08T09:18:19;4.47;;;3.17;;
45909;SDS011;31622;55.416;37.840;2024-03-08T09:20:45;4.97;;;3.05;;
45909;SDS011;31622;55.416;37.840;2024-03-08T09:23:10;4.78;;;2.80;;
45909;SDS011;31622;55.416;37.840;2024-03-08T09:25:36;4.75;;;3.38;;
45909;SDS011;31622;55.416;37.840;2024-03-08T09:28:02;4.30;;;3.00;;
45909;SDS011;31622;55.416;37.840;2024-03-08T09:30:28;3.92;;;2.90;;
45909;SDS011;31622;55.416;37.840;2024-03-08T09:32:54;5.65;;;2.97;;
45909;SDS011;31622;55.416;37.840;2024-03-08T09:35:20;3.45;;;2.55;;
45909;SDS011;31622;55.416;37.840;2024-03-08T09:37:45;5.07;;;3.05;;
45909;SDS011;31622;55.416;37.840;2024-03-08T09:40:16;4.72;;;2.72;;
45909;SDS011;31622;55.416;37.840;2024-03-08T09:42:45;5.38;;;3.00;;
45909;SDS011;31622;55.416;37.840;2024-03-08T09:45:12;4.75;;;2.78;;
45909;SDS011;31622;55.416;37.840;2024-03-08T09:47:39;4.35;;;3.10;;
45909;SDS011;31622;55.416;37.840;2024-03-08T09:50:05;5.78;;;2.90;;
45909;SDS011;31622;55.416;37.840;2024-03-08T09:52:35;4.88;;;2.75;;
45909;SDS011;31622;55.416;37.840;2024-03-08T09:55:04;4.45;;;2.55;;
45909;SDS011;31622;55.416;37.840;2024-03-08T09:57:31;4.78;;;2.83;;
45909;SDS011;31622;55.416;37.840;2024-03-08T09:59:58;9.73;;;3.65;;
45909;SDS011;31622;55.416;37.840;2024-03-08T10:02:23;11.02;;;3.80;;
45909;SDS011;31622;55.416;37.840;2024-03-08T10:04:49;10.88;;;3.80;;
45909;SDS011;31622;55.416;37.840;2024-03-08T10:07:18;11.68;;;4.30;;
45909;SDS011;31622;55.416;37.840;2024-03-08T10:09:44;10.07;;;4.10;;
45909;SDS011;31622;55.416;37.840;2024-03-08T10:12:16;15.15;;;4.10;;
45909;SDS011;31622;55.416;37.840;2024-03-08T10:14:42;15.75;;;4.50;;
45909;SDS011;31622;55.416;37.840;2024-03-08T10:17:08;17.08;;;5.10;;
45909;SDS011;31622;55.416;37.840;2024-03-08T10:19:35;14.10;;;4.22;;
45909;SDS011;31622;55.416;37.840;2024-03-08T10:22:00;13.63;;;5.18;;
45909;SDS011;31622;55.416;37.840;2024-03-08T10:24:26;17.60;;;5.25;;
45909;SDS011;31622;55.416;37.840;2024-03-08T10:26:53;11.50;;;4.57;;
45909;SDS011;31622;55.416;37.840;2024-03-08T10:29:19;17.75;;;5.13;;
45909;SDS011;31622;55.416;37.840;2024-03-08T10:31:46;11.63;;;4.38;;
45909;SDS011;31622;55.416;37.840;2024-03-08T10:34:11;9.18;;;3.95;;
45909;SDS011;31622;55.416;37.840;2024-03-08T10:36:37;11.63;;;4.18;;
45909;SDS011;31622;55.416;37.840;2024-03-08T10:39:06;13.48;;;4.47;;
45909;SDS011;31622;55.416;37.840;2024-03-08T10:41:47;14.82;;;4.50;;
45909;SDS011;31622;55.416;37.840;2024-03-08T10:49:24;10.00;;;4.45;;
45909;SDS011;31622;55.416;37.840;2024-03-08T10:51:51;14.75;;;5.70;;
45909;SDS011;31622;55.416;37.840;2024-03-08T10:54:18;15.65;;;5.72;;
45909;SDS011;31622;55.416;37.840;2024-03-08T10:56:44;20.00;;;6.32;;
45909;SDS011;31622;55.416;37.840;2024-03-08T10:59:12;19.00;;;7.32;;
45909;SDS011;31622;55.416;37.840;2024-03-08T11:01:39;30.40;;;9.27;;
45909;SDS011;31622;55.416;37.840;2024-03-08T11:04:05;51.13;;;13.88;;
45909;SDS011;31622;55.416;37.840;2024-03-08T11:09:03;64.93;;;19.17;;
45909;SDS011;31622;55.416;37.840;2024-03-08T11:11:47;81.30;;;21.13;;
45909;SDS011;31622;55.416;37.840;2024-03-08T11:17:13;77.07;;;22.08;;
45909;SDS011;31622;55.416;37.840;2024-03-08T11:19:44;84.82;;;22.40;;
45909;SDS011;31622;55.416;37.840;2024-03-08T11:22:13;81.10;;;22.90;;
45909;SDS011;31622;55.416;37.840;2024-03-08T11:24:48;82.28;;;23.25;;
45909;SDS011;31622;55.416;37.840;2024-03-08T11:27:14;68.10;;;20.25;;
45909;SDS011;31622;55.416;37.840;2024-03-08T11:29:40;74.80;;;20.85;;
45909;SDS011;31622;55.416;37.840;2024-03-08T11:32:10;66.00;;;20.45;;
45909;SDS011;31622;55.416;37.840;2024-03-08T11:34:47;66.30;;;19.27;;
45909;SDS011;31622;55.416;37.840;2024-03-08T11:37:15;65.43;;;18.17;;
45909;SDS011;31622;55.416;37.840;2024-03-08T11:42:15;59.58;;;16.45;;
45909;SDS011;31622;55.416;37.840;2024-03-08T11:44:43;57.45;;;15.90;;
45909;SDS011;31622;55.416;37.840;2024-03-08T11:47:10;48.42;;;13.90;;
45909;SDS011;31622;55.416;37.840;2024-03-08T11:49:36;48.80;;;14.70;;
45909;SDS011;31622;55.416;37.840;2024-03-08T11:52:03;41.45;;;13.65;;
45909;SDS011;31622;55.416;37.840;2024-03-08T11:54:29;42.80;;;13.02;;
45909;SDS011;31622;55.416;37.840;2024-03-08T11:56:55;40.85;;;12.88;;
45909;SDS011;31622;55.416;37.840;2024-03-08T11:59:28;40.63;;;11.95;;
45909;SDS011;31622;55.416;37.840;2024-03-08T12:02:02;36.72;;;11.30;;
45909;SDS011;31622;55.416;37.840;2024-03-08T12:04:29;33.97;;;10.30;;
45909;SDS011;31622;55.416;37.840;2024-03-08T12:06:56;31.90;;;11.48;;
45909;SDS011;31622;55.416;37.840;2024-03-08T12:09:26;31.15;;;11.27;;
45909;SDS011;31622;55.416;37.840;2024-03-08T12:11:52;32.45;;;9.52;;
45909;SDS011;31622;55.416;37.840;2024-03-08T12:14:17;26.17;;;9.32;;
45909;SDS011;31622;55.416;37.840;2024-03-08T12:16:43;30.83;;;8.70;;
45909;SDS011;31622;55.416;37.840;2024-03-08T12:19:09;22.52;;;8.23;;
45909;SDS011;31622;55.416;37.840;2024-03-08T12:21:35;29.83;;;8.52;;
45909;SDS011;31622;55.416;37.840;2024-03-08T12:24:02;21.77;;;7.90;;
45909;SDS011;31622;55.416;37.840;2024-03-08T12:26:29;19.17;;;7.43;;
45909;SDS011;31622;55.416;37.840;2024-03-08T12:29:13;15.75;;;6.30;;
45909;SDS011;31622;55.416;37.840;2024-03-08T12:31:51;14.48;;;7.13;;
45909;SDS011;31622;55.416;37.840;2024-03-08T12:34:18;14.27;;;6.03;;
45909;SDS011;31622;55.416;37.840;2024-03-08T12:36:44;19.30;;;6.88;;
45909;SDS011;31622;55.416;37.840;2024-03-08T12:39:13;16.27;;;5.60;;
45909;SDS011;31622;55.416;37.840;2024-03-08T12:41:41;16.75;;;6.22;;
45909;SDS011;31622;55.416;37.840;2024-03-08T12:44:07;14.20;;;5.70;;
45909;SDS011;31622;55.416;37.840;2024-03-08T12:46:36;16.08;;;5.28;;
45909;SDS011;31622;55.416;37.840;2024-03-08T12:49:07;13.32;;;5.10;;
45909;SDS011;31622;55.416;37.840;2024-03-08T12:51:33;14.50;;;4.95;;
45909;SDS011;31622;55.416;37.840;2024-03-08T12:53:59;11.90;;;5.05;;
45909;SDS011;31622;55.416;37.840;2024-03-08T12:56:30;12.05;;;5.38;;
45909;SDS011;31622;55.416;37.840;2024-03-08T12:58:58;10.88;;;4.85;;
45909;SDS011;31622;55.416;37.840;2024-03-08T13:01:23;12.82;;;5.40;;
45909;SDS011;31622;55.416;37.840;2024-03-08T13:03:49;11.77;;;6.00;;
45909;SDS011;31622;55.416;37.840;2024-03-08T13:06:15;9.77;;;4.30;;
45909;SDS011;31622;55.416;37.840;2024-03-08T13:08:41;9.43;;;4.75;;
45909;SDS011;31622;55.416;37.840;2024-03-08T13:11:07;9.60;;;4.40;;
45909;SDS011;31622;55.416;37.840;2024-03-08T13:13:36;10.00;;;4.10;;
45909;SDS011;31622;55.416;37.840;2024-03-08T13:16:05;10.70;;;3.92;;
45909;SDS011;31622;55.416;37.840;2024-03-08T13:18:34;7.07;;;4.10;;
45909;SDS011;31622;55.416;37.840;2024-03-08T13:21:01;9.80;;;3.95;;
45909;SDS011;31622;55.416;37.840;2024-03-08T13:23:33;12.93;;;4.25;;
45909;SDS011;31622;55.416;37.840;2024-03-08T13:26:07;10.88;;;4.13;;
45909;SDS011;31622;55.416;37.840;2024-03-08T13:28:34;9.45;;;4.75;;
45909;SDS011;31622;55.416;37.840;2024-03-08T13:31:06;10.70;;;4.97;;
45909;SDS011;31622;55.416;37.840;2024-03-08T13:33:35;11.13;;;4.03;;
45909;SDS011;31622;55.416;37.840;2024-03-08T13:36:02;13.73;;;4.88;;
45909;SDS011;31622;55.416;37.840;2024-03-08T13:38:29;12.15;;;5.60;;
45909;SDS011;31622;55.416;37.840;2024-03-08T13:40:58;10.77;;;5.75;;
45909;SDS011;31622;55.416;37.840;2024-03-08T13:43:24;12.88;;;5.38;;
45909;SDS011;31622;55.416;37.840;2024-03-08T13:45:49;12.07;;;5.90;;
45909;SDS011;31622;55.416;37.840;2024-03-08T13:48:15;11.80;;;5.70;;
45909;SDS011;31622;55.416;37.840;2024-03-08T13:50:41;15.07;;;5.50;;
45909;SDS011;31622;55.416;37.840;2024-03-08T13:53:07;12.65;;;6.20;;
45909;SDS011;31622;55.416;37.840;2024-03-08T13:55:35;13.30;;;5.60;;
45909;SDS011;31622;55.416;37.840;2024-03-08T13:58:01;14.32;;;5.78;;
45909;SDS011;31622;55.416;37.840;2024-03-08T14:00:27;10.25;;;5.68;;
45909;SDS011;31622;55.416;37.840;2024-03-08T14:02:58;10.65;;;5.05;;
45909;SDS011;31622;55.416;37.840;2024-03-08T14:05:24;18.90;;;5.35;;
45909;SDS011;31622;55.416;37.840;2024-03-08T14:07:50;11.07;;;4.97;;
45909;SDS011;31622;55.416;37.840;2024-03-08T14:10:16;9.32;;;4.45;;
45909;SDS011;31622;55.416;37.840;2024-03-08T14:12:45;8.80;;;4.43;;
45909;SDS011;31622;55.416;37.840;2024-03-08T14:15:13;9.57;;;4.38;;
45909;SDS011;31622;55.416;37.840;2024-03-08T14:17:39;10.45;;;4.22;;
45909;SDS011;31622;55.416;37.840;2024-03-08T14:20:05;6.13;;;4.07;;
45909;SDS011;31622;55.416;37.840;2024-03-08T14:22:31;7.05;;;4.20;;
45909;SDS011;31622;55.416;37.840;2024-03-08T14:24:57;7.90;;;4.10;;
45909;SDS011;31622;55.416;37.840;2024-03-08T14:27:23;13.80;;;3.85;;
45909;SDS011;31622;55.416;37.840;2024-03-08T14:29:48;9.80;;;3.78;;
45909;SDS011;31622;55.416;37.840;2024-03-08T14:32:14;7.72;;;3.70;;
45909;SDS011;31622;55.416;37.840;2024-03-08T14:34:40;7.38;;;4.00;;
45909;SDS011;31622;55.416;37.840;2024-03-08T14:37:06;8.30;;;4.57;;
45909;SDS011;31622;55.416;37.840;2024-03-08T14:39:36;9.68;;;3.78;;
45909;SDS011;31622;55.416;37.840;2024-03-08T14:42:02;6.63;;;3.45;;
45909;SDS011;31622;55.416;37.840;2024-03-08T14:44:28;5.63;;;3.40;;